createdAt,value
2022-10-20T00:01:28.335Z,8.20
2022-10-20T00:03:57.940Z,8.20
2022-10-20T00:06:29.354Z,8.10
2022-10-20T00:09:00.389Z,8.10
2022-10-20T00:11:29.638Z,8.10
2022-10-20T00:13:59.156Z,8.10
2022-10-20T00:16:29.657Z,8.10
2022-10-20T00:21:30.979Z,7.80
2022-10-20T00:24:02.145Z,7.90
2022-10-20T00:26:32.694Z,7.90
2022-10-20T00:29:02.639Z,8.00
2022-10-20T00:33:59.208Z,7.40
2022-10-20T00:36:27.165Z,8.40
2022-10-20T00:39:00.900Z,7.90
2022-10-20T00:41:29.945Z,7.80
2022-10-20T00:44:00.370Z,7.70
2022-10-20T00:46:40.865Z,7.70
2022-10-20T00:49:25.585Z,7.70
2022-10-20T00:51:54.969Z,7.20
2022-10-20T00:54:27.304Z,7.60
2022-10-20T00:56:57.319Z,7.20
2022-10-20T00:59:31.452Z,7.70
2022-10-20T01:02:02.444Z,7.90
2022-10-20T01:04:32.687Z,7.50
2022-10-20T01:09:29.872Z,7.70
2022-10-20T01:12:19.659Z,7.60
2022-10-20T01:14:56.464Z,8.00
2022-10-20T01:20:27.780Z,7.50
2022-10-20T01:23:19.472Z,7.40
2022-10-20T01:26:35.029Z,7.60
2022-10-20T01:29:20.675Z,7.90
2022-10-20T01:34:50.523Z,7.50
2022-10-20T01:37:48.538Z,7.30
2022-10-20T01:42:53.970Z,7.00
2022-10-20T01:45:25.374Z,7.70
2022-10-20T01:47:55.069Z,7.30
2022-10-20T01:50:24.572Z,7.50
2022-10-20T01:52:59.761Z,8.90
2022-10-20T01:58:23.255Z,7.30
2022-10-20T02:00:53.885Z,7.40
2022-10-20T02:03:54.475Z,7.10
2022-10-20T02:06:44.953Z,7.40
2022-10-20T02:09:37.224Z,7.20
2022-10-20T02:12:11.441Z,7.40
2022-10-20T02:14:41.262Z,7.40
2022-10-20T02:17:14.412Z,7.40
2022-10-20T02:19:46.371Z,7.80
2022-10-20T02:22:16.723Z,7.40
2022-10-20T02:24:45.855Z,7.40
2022-10-20T02:27:37.678Z,7.40
2022-10-20T02:30:09.770Z,7.30
2022-10-20T02:32:41.690Z,7.30
2022-10-20T02:35:15.342Z,7.30
2022-10-20T02:40:12.686Z,7.70
2022-10-20T02:42:41.024Z,7.70
2022-10-20T02:45:09.862Z,7.30
2022-10-20T02:50:09.202Z,7.30
2022-10-20T02:55:07.662Z,7.70
2022-10-20T03:00:07.602Z,10.70
2022-10-20T03:20:06.955Z,7.20
2022-10-20T03:27:31.709Z,7.40
2022-10-20T03:29:59.758Z,7.40
2022-10-20T03:32:27.894Z,7.30
2022-10-20T03:44:49.810Z,7.40
2022-10-20T03:49:46.110Z,7.30
2022-10-20T03:52:14.019Z,7.60
2022-10-20T03:54:42.009Z,6.90
2022-10-20T04:07:03.700Z,6.90
2022-10-20T04:14:28.466Z,7.10
2022-10-20T04:16:56.498Z,7.40
2022-10-20T04:19:24.736Z,6.90
2022-10-20T04:24:21.115Z,7.20
2022-10-20T04:31:51.455Z,7.40
2022-10-20T04:34:19.360Z,7.00
2022-10-20T04:36:47.297Z,6.80
2022-10-20T04:41:44.000Z,6.60
2022-10-20T05:09:08.524Z,6.90
2022-10-20T05:11:38.518Z,6.90
2022-10-20T05:14:07.229Z,7.00
2022-10-20T05:21:33.672Z,6.80
2022-10-20T05:24:06.698Z,6.80
2022-10-20T05:26:37.452Z,6.80
2022-10-20T05:29:08.418Z,6.40
2022-10-20T05:31:42.816Z,6.70
2022-10-20T05:34:12.505Z,6.70
2022-10-20T05:41:38.957Z,6.70
2022-10-20T05:44:09.670Z,6.80
2022-10-20T05:46:41.418Z,6.80
2022-10-20T05:49:15.911Z,7.20
2022-10-20T05:54:14.424Z,6.90
2022-10-20T05:59:13.991Z,6.90
2022-10-20T06:04:24.114Z,6.90
2022-10-20T06:06:53.632Z,7.00
2022-10-20T06:09:23.000Z,7.00
2022-10-20T06:16:54.404Z,7.00
2022-10-20T06:19:23.894Z,6.80
2022-10-20T06:24:21.269Z,7.10
2022-10-20T06:29:21.061Z,7.20
2022-10-20T06:31:52.412Z,7.20
2022-10-20T06:34:24.071Z,7.20
2022-10-20T06:39:25.497Z,7.10
2022-10-20T06:41:55.852Z,7.20
2022-10-20T06:44:25.410Z,7.20
2022-10-20T06:49:23.306Z,7.10
2022-10-20T07:04:16.634Z,7.80
2022-10-20T07:06:47.336Z,7.40
2022-10-20T07:09:19.575Z,7.70
2022-10-20T07:11:52.352Z,8.30
2022-10-20T07:14:20.513Z,8.10
2022-10-20T07:16:48.571Z,7.40
2022-10-20T07:26:44.080Z,7.40
2022-10-20T07:29:13.756Z,7.70
2022-10-20T07:31:48.379Z,8.40
2022-10-20T07:34:25.677Z,8.00
2022-10-20T07:36:55.401Z,8.00
2022-10-20T07:41:52.049Z,8.50
2022-10-20T07:59:30.738Z,8.80
2022-10-20T08:01:59.747Z,8.60
2022-10-20T08:04:28.996Z,8.20
2022-10-20T08:27:23.406Z,8.90
2022-10-20T08:32:39.785Z,9.20
2022-10-20T08:35:08.948Z,8.80
2022-10-20T08:37:37.746Z,9.30
2022-10-20T08:40:06.877Z,9.60
2022-10-20T08:42:42.156Z,9.50
2022-10-20T08:45:18.504Z,9.60
2022-10-20T08:47:48.827Z,9.10
2022-10-20T08:50:18.849Z,9.70
2022-10-20T08:52:49.050Z,9.40
2022-10-20T08:55:32.711Z,9.80
2022-10-20T08:58:13.922Z,9.80
2022-10-20T09:03:24.106Z,10.40
2022-10-20T09:06:03.602Z,9.70
2022-10-20T09:08:33.859Z,10.10
2022-10-20T09:13:34.274Z,10.30
2022-10-20T09:16:27.312Z,10.50
2022-10-20T09:19:15.321Z,10.50
2022-10-20T09:21:45.400Z,10.50
2022-10-20T09:24:13.853Z,10.40
2022-10-20T09:26:59.158Z,10.90
2022-10-20T09:29:40.351Z,11.20
2022-10-20T09:32:49.335Z,10.90
2022-10-20T09:35:27.548Z,10.50
2022-10-20T09:38:19.100Z,11.70
2022-10-20T09:41:16.561Z,11.20
2022-10-20T09:43:58.095Z,11.30
2022-10-20T09:46:41.289Z,11.50
2022-10-20T09:49:09.482Z,11.60
2022-10-20T09:51:38.304Z,11.60
2022-10-20T09:54:09.360Z,11.80
2022-10-20T09:56:41.729Z,11.80
2022-10-20T09:59:34.311Z,11.90
2022-10-20T10:02:10.674Z,12.00
2022-10-20T10:04:42.562Z,12.10
2022-10-20T10:07:28.752Z,11.70
2022-10-20T10:10:31.422Z,12.40
2022-10-20T10:13:02.801Z,12.40
2022-10-20T10:15:38.168Z,12.50
2022-10-20T10:18:22.953Z,12.70
2022-10-20T10:21:01.367Z,12.70
2022-10-20T10:23:34.012Z,12.80
2022-10-20T10:28:40.535Z,12.80
2022-10-20T10:31:23.710Z,12.90
2022-10-20T10:34:15.371Z,13.40
2022-10-20T10:36:43.556Z,12.40
2022-10-20T10:39:16.039Z,13.00
2022-10-20T10:42:02.252Z,12.70
2022-10-20T10:47:46.241Z,13.40
2022-10-20T10:50:39.017Z,14.10
2022-10-20T10:53:48.149Z,13.60
2022-10-20T10:56:45.513Z,13.40
2022-10-20T10:59:36.577Z,13.60
2022-10-20T11:02:50.651Z,14.20
2022-10-20T11:05:56.731Z,13.40
2022-10-20T11:11:22.439Z,13.70
2022-10-20T11:14:09.341Z,13.30
2022-10-20T11:16:56.224Z,13.80
2022-10-20T11:19:36.429Z,13.70
2022-10-20T11:22:32.423Z,13.70
2022-10-20T11:25:18.131Z,13.70
2022-10-20T11:30:21.005Z,13.60
2022-10-20T11:33:14.394Z,13.60
2022-10-20T11:41:43.764Z,13.70
2022-10-20T11:44:27.836Z,13.80
2022-10-20T11:47:36.067Z,14.10
2022-10-20T11:50:08.281Z,13.90
2022-10-20T11:52:55.626Z,13.40
2022-10-20T11:55:53.641Z,13.90
2022-10-20T11:58:51.408Z,13.90
2022-10-20T12:01:22.389Z,13.90
2022-10-20T12:04:25.836Z,13.90
2022-10-20T12:07:38.681Z,14.00
2022-10-20T12:10:55.565Z,14.00
2022-10-20T12:14:19.553Z,14.40
2022-10-20T12:16:53.548Z,14.50
2022-10-20T12:19:34.261Z,14.00
2022-10-20T12:24:43.224Z,14.70
2022-10-20T12:27:11.153Z,14.40
2022-10-20T12:32:37.016Z,14.60
2022-10-20T12:35:14.199Z,14.90
2022-10-20T12:42:56.389Z,15.00
2022-10-20T12:45:40.806Z,15.10
2022-10-20T12:48:17.330Z,15.10
2022-10-20T12:50:47.901Z,15.10
2022-10-20T12:53:18.912Z,15.00
2022-10-20T12:56:10.295Z,15.00
2022-10-20T12:58:40.132Z,15.10
2022-10-20T13:03:47.826Z,15.10
2022-10-20T13:06:24.730Z,15.20
2022-10-20T13:09:05.011Z,15.20
2022-10-20T13:11:38.731Z,15.90
2022-10-20T13:14:57.785Z,15.10
2022-10-20T13:17:36.786Z,15.20
2022-10-20T13:20:29.428Z,15.20
2022-10-20T13:25:45.720Z,15.50
2022-10-20T13:31:14.054Z,15.50
2022-10-20T13:37:03.281Z,15.60
2022-10-20T13:39:36.689Z,15.60
2022-10-20T13:42:36.996Z,15.60
2022-10-20T13:45:26.111Z,15.70
2022-10-20T13:48:38.174Z,15.80
2022-10-20T13:51:24.909Z,16.50
2022-10-20T13:53:57.659Z,15.80
2022-10-20T13:56:43.875Z,15.90
2022-10-20T13:59:25.423Z,15.90
2022-10-20T14:02:19.487Z,15.90
2022-10-20T14:12:27.551Z,15.80
2022-10-20T14:15:02.162Z,16.00
2022-10-20T14:20:33.703Z,16.10
2022-10-20T14:23:04.199Z,16.10
2022-10-20T14:25:33.423Z,16.00
2022-10-20T14:28:05.193Z,16.00
2022-10-20T14:33:16.079Z,16.10
2022-10-20T14:35:53.558Z,16.00
2022-10-20T14:38:35.533Z,16.30
2022-10-20T14:43:46.917Z,16.00
2022-10-20T14:46:50.672Z,15.90
2022-10-20T14:49:28.828Z,15.90
2022-10-20T14:52:01.952Z,16.30
2022-10-20T14:54:37.437Z,15.70
2022-10-20T14:57:14.598Z,15.60
2022-10-20T15:00:03.528Z,15.60
2022-10-20T15:02:42.492Z,15.60
2022-10-20T15:05:32.295Z,15.50
2022-10-20T15:08:11.256Z,15.60
2022-10-20T15:10:40.118Z,15.50
2022-10-20T15:18:21.490Z,15.20
2022-10-20T15:20:50.998Z,15.30
2022-10-20T15:23:37.075Z,15.20
2022-10-20T15:26:14.456Z,15.00
2022-10-20T15:28:47.607Z,15.00
2022-10-20T15:36:22.658Z,14.70
2022-10-20T15:41:23.110Z,14.60
2022-10-20T15:46:20.814Z,14.50
2022-10-20T15:51:32.922Z,14.40
2022-10-20T15:54:01.705Z,14.20
2022-10-20T16:16:22.159Z,13.80
2022-10-20T16:31:15.970Z,13.30
2022-10-20T16:36:16.382Z,13.40
2022-10-20T16:41:16.027Z,13.30
2022-10-20T16:43:47.935Z,13.20
2022-10-20T16:46:16.658Z,13.00
2022-10-20T16:51:17.502Z,13.00
2022-10-20T17:01:21.715Z,12.80
2022-10-20T17:03:52.873Z,12.20
2022-10-20T17:06:25.221Z,12.10
2022-10-20T17:11:26.945Z,12.50
2022-10-20T17:16:34.367Z,12.50
2022-10-20T17:19:04.037Z,12.50
2022-10-20T17:21:33.425Z,12.50
2022-10-20T17:26:32.482Z,12.40
2022-10-20T17:29:02.275Z,12.30
2022-10-20T17:34:00.372Z,12.30
2022-10-20T17:39:05.590Z,12.30
2022-10-20T17:56:35.977Z,12.30
2022-10-20T17:59:06.665Z,12.20
2022-10-20T18:01:40.267Z,12.20
2022-10-20T18:04:15.233Z,12.10
2022-10-20T18:06:45.092Z,12.10
2022-10-20T18:09:22.728Z,12.10
2022-10-20T18:11:53.302Z,12.10
2022-10-20T18:19:20.126Z,12.00
2022-10-20T18:21:48.861Z,12.00
2022-10-20T18:24:18.888Z,12.00
2022-10-20T18:26:47.929Z,12.00
2022-10-20T18:29:17.946Z,11.90
2022-10-20T18:31:47.833Z,11.90
2022-10-20T18:34:20.565Z,11.90
2022-10-20T18:36:51.851Z,12.00
2022-10-20T18:41:54.800Z,12.00
2022-10-20T19:06:50.243Z,12.10
2022-10-20T19:09:21.916Z,12.20
2022-10-20T19:21:52.008Z,12.00
2022-10-20T19:24:24.459Z,11.80
2022-10-20T19:27:24.567Z,12.00
2022-10-20T19:39:42.867Z,12.20
2022-10-20T19:42:12.332Z,12.20
2022-10-20T19:52:08.292Z,11.70
2022-10-20T19:54:37.366Z,11.60
2022-10-20T19:57:06.266Z,11.60
2022-10-20T20:19:25.029Z,11.70
2022-10-20T20:34:17.159Z,11.90
2022-10-20T20:54:04.751Z,12.20
2022-10-20T21:01:32.325Z,12.20
2022-10-20T21:04:10.195Z,12.20
2022-10-20T21:07:01.328Z,12.20
2022-10-20T21:24:28.901Z,12.90
2022-10-20T21:29:25.360Z,12.30
2022-10-20T21:34:26.476Z,12.60
2022-10-20T21:49:21.488Z,12.70
2022-10-20T21:51:53.078Z,12.70
2022-10-20T21:54:27.381Z,12.70
2022-10-20T21:59:30.364Z,12.80
2022-10-20T22:02:01.631Z,12.80
2022-10-20T22:04:31.475Z,12.70
2022-10-20T22:11:59.013Z,12.90
2022-10-20T22:19:25.757Z,12.90
2022-10-20T22:21:55.028Z,12.80
2022-10-20T22:26:53.631Z,12.80
2022-10-20T22:29:23.984Z,12.90
2022-10-20T23:31:22.657Z,12.90
2022-10-20T23:33:56.004Z,12.50
